Time;durP1;ratioP1;P1;durP2;ratioP2;P2;SDS_P1;SDS_P2;PMS_P1;PMS_P2;Temp;Humidity;BMP_temperature;BMP_pressure;BME280_temperature;BME280_humidity;BME280_pressure;Samples;Min_cycle;Max_cycle;Signal;HPM_P1;HPM_P2
2022/02/02 00:01:31;;;;;;;3.53;2.10;;;;;;;;;;5102956;28;20287;-85
2022/02/02 00:04:00;;;;;;;4.17;2.43;;;;;;;;;;5080391;28;20687;-84
2022/02/02 00:06:33;;;;;;;4.40;3.00;;;;;;;;;;5091538;28;20194;-85
2022/02/02 00:09:04;;;;;;;4.33;3.10;;;;;;;;;;5092652;28;20201;-84
2022/02/02 00:17:09;;;;;;;3.43;2.53;;;;;;;;;;5102302;28;20574;-84
2022/02/02 00:19:42;;;;;;;3.80;2.30;;;;;;;;;;5092665;28;20202;-84
2022/02/02 00:22:14;;;;;;;3.13;1.93;;;;;;;;;;5091904;28;20211;-84
2022/02/02 00:24:59;;;;;;;3.00;2.10;;;;;;;;;;5094732;28;20562;-84
2022/02/02 00:27:26;;;;;;;3.13;1.90;;;;;;;;;;5099311;28;20197;-84
2022/02/02 00:29:58;;;;;;;3.47;2.03;;;;;;;;;;5092362;28;20209;-84
2022/02/02 00:32:44;;;;;;;4.13;2.17;;;;;;;;;;5091952;28;20627;-84
2022/02/02 00:35:14;;;;;;;4.63;2.10;;;;;;;;;;5099358;28;20688;-84
2022/02/02 00:37:41;;;;;;;4.40;2.17;;;;;;;;;;5109789;28;20262;-84
2022/02/02 00:40:09;;;;;;;2.87;2.30;;;;;;;;;;5091873;28;20696;-84
2022/02/02 00:42:36;;;;;;;3.53;2.60;;;;;;;;;;5097848;28;20271;-84
2022/02/02 00:45:04;;;;;;;4.83;2.40;;;;;;;;;;5101315;28;20273;-84
2022/02/02 00:47:37;;;;;;;4.73;2.60;;;;;;;;;;5116397;28;20734;-85
2022/02/02 00:50:06;;;;;;;4.77;2.70;;;;;;;;;;5119077;28;20194;-84
2022/02/02 00:52:33;;;;;;;3.00;2.57;;;;;;;;;;5125280;28;20224;-85
2022/02/02 00:55:00;;;;;;;4.40;2.73;;;;;;;;;;5106731;28;20233;-84
2022/02/02 00:57:28;;;;;;;3.63;2.33;;;;;;;;;;5096031;28;20202;-84
2022/02/02 00:59:55;;;;;;;4.30;2.53;;;;;;;;;;5095187;28;20248;-85
2022/02/02 01:02:22;;;;;;;3.80;2.50;;;;;;;;;;5120286;28;20717;-85
2022/02/02 01:04:51;;;;;;;3.03;2.10;;;;;;;;;;5100061;28;20262;-85
2022/02/02 01:07:25;;;;;;;2.73;2.10;;;;;;;;;;5097077;28;20765;-85
2022/02/02 01:10:04;;;;;;;3.70;2.53;;;;;;;;;;5115172;28;20236;-85
2022/02/02 01:12:43;;;;;;;3.27;2.30;;;;;;;;;;5104008;28;20210;-85
2022/02/02 01:20:53;;;;;;;3.53;2.23;;;;;;;;;;5095006;28;20681;-85
2022/02/02 01:28:51;;;;;;;3.40;2.70;;;;;;;;;;5105957;28;20202;-85
2022/02/02 01:31:18;;;;;;;3.63;2.50;;;;;;;;;;5114944;28;20239;-85
2022/02/02 01:33:47;;;;;;;4.67;2.00;;;;;;;;;;5114812;28;20702;-85
2022/02/02 01:36:16;;;;;;;3.23;2.60;;;;;;;;;;5115999;28;20259;-86
2022/02/02 01:38:45;;;;;;;3.93;2.40;;;;;;;;;;5123565;28;20222;-85
2022/02/02 01:41:19;;;;;;;3.27;2.07;;;;;;;;;;5117304;28;20614;-86
2022/02/02 01:43:54;;;;;;;2.90;2.23;;;;;;;;;;5106463;28;20794;-85
2022/02/02 01:46:22;;;;;;;3.43;2.40;;;;;;;;;;5107425;28;20196;-85
2022/02/02 01:48:58;;;;;;;3.53;2.40;;;;;;;;;;5095268;28;20658;-85
2022/02/02 01:51:49;;;;;;;4.07;2.50;;;;;;;;;;5107242;28;20714;-85
2022/02/02 01:54:34;;;;;;;3.60;2.47;;;;;;;;;;5117975;27;20322;-85
2022/02/02 01:57:10;;;;;;;3.40;2.30;;;;;;;;;;5134602;27;20197;-85
2022/02/02 01:59:39;;;;;;;2.40;2.00;;;;;;;;;;5134751;27;20661;-85
2022/02/02 02:02:08;;;;;;;2.50;1.87;;;;;;;;;;5134664;27;20204;-85
2022/02/02 02:04:35;;;;;;;2.90;1.77;;;;;;;;;;5123342;27;20297;-85
2022/02/02 02:07:04;;;;;;;1.67;1.30;;;;;;;;;;5117317;27;20194;-85
2022/02/02 02:09:32;;;;;;;2.50;1.53;;;;;;;;;;5116733;27;20239;-85
2022/02/02 02:12:00;;;;;;;2.50;1.70;;;;;;;;;;5133788;27;20212;-85
2022/02/02 02:14:41;;;;;;;2.83;1.97;;;;;;;;;;5141538;27;20274;-86
2022/02/02 02:17:08;;;;;;;2.43;1.70;;;;;;;;;;5120669;27;20201;-85
2022/02/02 02:19:39;;;;;;;2.60;2.07;;;;;;;;;;5124612;27;20209;-86
2022/02/02 02:22:11;;;;;;;2.50;1.70;;;;;;;;;;5114256;27;20193;-86
2022/02/02 02:24:40;;;;;;;2.40;1.53;;;;;;;;;;5098950;28;20225;-85
2022/02/02 02:27:11;;;;;;;2.20;1.33;;;;;;;;;;5124625;27;20637;-86
2022/02/02 02:29:54;;;;;;;2.87;1.40;;;;;;;;;;5114430;27;20208;-86
2022/02/02 02:32:35;;;;;;;1.67;1.20;;;;;;;;;;5122885;27;20289;-86
2022/02/02 02:38:13;;;;;;;1.97;1.23;;;;;;;;;;5119381;27;20330;-85
2022/02/02 02:57:11;;;;;;;1.30;1.17;;;;;;;;;;5030306;28;20210;-85
2022/02/02 02:59:46;;;;;;;1.50;1.20;;;;;;;;;;5036896;28;20227;-86
2022/02/02 03:02:59;;;;;;;1.77;1.13;;;;;;;;;;5030667;28;20200;-86
2022/02/02 03:30:50;;;;;;;1.63;1.20;;;;;;;;;;4972311;28;20204;-86
2022/02/02 03:53:15;;;;;;;0.80;0.60;;;;;;;;;;4990332;28;20201;-86
2022/02/02 03:55:44;;;;;;;1.17;0.70;;;;;;;;;;5018030;28;20251;-86
2022/02/02 03:58:20;;;;;;;1.23;0.87;;;;;;;;;;5032574;28;20256;-85
2022/02/02 04:01:10;;;;;;;1.37;0.90;;;;;;;;;;5049414;28;20242;-85
2022/02/02 04:03:54;;;;;;;1.70;1.07;;;;;;;;;;5056326;28;20200;-85
2022/02/02 04:06:23;;;;;;;1.87;0.80;;;;;;;;;;5035967;28;20216;-85
2022/02/02 04:08:52;;;;;;;2.23;1.10;;;;;;;;;;5062082;28;20228;-86
2022/02/02 04:11:28;;;;;;;1.53;1.17;;;;;;;;;;5051843;28;20271;-86
2022/02/02 04:39:08;;;;;;;2.40;1.07;;;;;;;;;;5047178;28;20224;-86
2022/02/02 04:53:10;;;;;;;1.80;1.00;;;;;;;;;;5049873;28;20250;-85
2022/02/02 04:55:40;;;;;;;1.67;0.70;;;;;;;;;;5089310;28;20230;-85
2022/02/02 04:58:18;;;;;;;1.73;0.80;;;;;;;;;;5095348;28;20199;-86
2022/02/02 05:06:35;;;;;;;1.23;0.60;;;;;;;;;;5056170;28;20227;-85
2022/02/02 05:09:15;;;;;;;1.43;0.80;;;;;;;;;;5052807;28;20211;-85
2022/02/02 05:18:00;;;;;;;2.83;0.80;;;;;;;;;;4986298;28;20313;-86
2022/02/02 05:43:10;;;;;;;0.67;0.50;;;;;;;;;;5072433;28;20276;-85
2022/02/02 05:53:37;;;;;;;1.40;0.97;;;;;;;;;;5129691;27;20196;-86
2022/02/02 05:56:06;;;;;;;2.00;0.80;;;;;;;;;;5103903;28;20308;-85
2022/02/02 05:58:37;;;;;;;1.53;0.90;;;;;;;;;;5096507;28;20214;-86
2022/02/02 06:01:05;;;;;;;2.80;0.97;;;;;;;;;;5100389;28;20288;-86
2022/02/02 06:03:39;;;;;;;1.53;0.80;;;;;;;;;;5112151;28;20699;-88
2022/02/02 06:06:07;;;;;;;1.83;1.00;;;;;;;;;;5114060;28;20283;-86
2022/02/02 06:08:36;;;;;;;1.83;0.80;;;;;;;;;;5105023;28;20199;-87
2022/02/02 06:11:05;;;;;;;1.73;0.87;;;;;;;;;;5108243;28;20642;-85
2022/02/02 06:13:40;;;;;;;2.80;0.93;;;;;;;;;;5096026;28;20247;-85
2022/02/02 06:16:08;;;;;;;2.90;0.70;;;;;;;;;;5106235;28;20205;-85
2022/02/02 06:18:37;;;;;;;2.73;0.90;;;;;;;;;;5101087;28;20194;-85
2022/02/02 06:21:06;;;;;;;3.03;0.80;;;;;;;;;;5097785;28;20220;-84
2022/02/02 06:23:37;;;;;;;1.87;1.00;;;;;;;;;;5109522;28;20198;-85
2022/02/02 06:26:05;;;;;;;3.07;0.73;;;;;;;;;;5096258;28;20601;-85
2022/02/02 06:28:34;;;;;;;2.43;0.70;;;;;;;;;;5114504;28;20226;-85
2022/02/02 06:31:02;;;;;;;1.70;0.67;;;;;;;;;;5119350;28;20750;-84
2022/02/02 06:33:33;;;;;;;2.33;0.77;;;;;;;;;;5114934;28;20211;-86
2022/02/02 06:36:02;;;;;;;1.70;0.70;;;;;;;;;;5104377;28;20242;-86
2022/02/02 06:38:31;;;;;;;3.23;0.73;;;;;;;;;;5107087;28;20676;-86
2022/02/02 06:41:00;;;;;;;1.93;0.70;;;;;;;;;;5098150;28;20211;-87
2022/02/02 06:43:28;;;;;;;3.57;1.00;;;;;;;;;;5092530;28;20641;-85
2022/02/02 06:45:57;;;;;;;2.50;0.90;;;;;;;;;;5101087;28;20276;-86
2022/02/02 06:48:25;;;;;;;5.20;0.90;;;;;;;;;;5095549;28;20196;-86
2022/02/02 06:50:59;;;;;;;2.43;0.80;;;;;;;;;;5092227;28;20243;-85
2022/02/02 06:53:34;;;;;;;1.97;0.70;;;;;;;;;;5092540;28;20200;-86
2022/02/02 06:56:12;;;;;;;2.90;0.80;;;;;;;;;;5093315;28;20599;-88
2022/02/02 06:58:48;;;;;;;3.53;0.83;;;;;;;;;;5085928;28;20198;-86
2022/02/02 07:01:32;;;;;;;4.53;0.60;;;;;;;;;;5101876;28;20194;-86
2022/02/02 07:04:10;;;;;;;3.33;0.83;;;;;;;;;;5096528;28;20248;-87
2022/02/02 07:06:47;;;;;;;1.23;0.77;;;;;;;;;;5081945;28;20228;-87
2022/02/02 07:09:29;;;;;;;1.83;0.60;;;;;;;;;;5097780;28;20251;-86
2022/02/02 07:12:07;;;;;;;4.87;0.70;;;;;;;;;;5094790;28;20402;-83
2022/02/02 07:17:35;;;;;;;1.70;0.70;;;;;;;;;;5087044;28;20288;-83
2022/02/02 07:20:10;;;;;;;3.43;0.90;;;;;;;;;;5086582;28;20197;-84
2022/02/02 07:23:01;;;;;;;3.23;1.10;;;;;;;;;;5105470;28;20218;-84
2022/02/02 07:28:19;;;;;;;3.40;1.00;;;;;;;;;;5097314;28;20667;-83
2022/02/02 07:30:57;;;;;;;1.97;1.00;;;;;;;;;;5092777;28;20228;-83
2022/02/02 07:33:32;;;;;;;1.77;0.63;;;;;;;;;;5091802;28;20241;-83
2022/02/02 07:36:07;;;;;;;4.90;1.00;;;;;;;;;;5085607;28;20273;-85
2022/02/02 07:38:40;;;;;;;2.03;1.07;;;;;;;;;;5096047;28;20280;-83
2022/02/02 07:41:09;;;;;;;5.20;0.93;;;;;;;;;;5096000;28;20565;-83
2022/02/02 07:43:41;;;;;;;4.17;1.10;;;;;;;;;;5112288;28;20215;-83
2022/02/02 07:46:09;;;;;;;4.53;1.60;;;;;;;;;;5108300;28;20593;-82
2022/02/02 07:48:38;;;;;;;5.27;1.60;;;;;;;;;;5108338;28;20663;-82
2022/02/02 07:51:07;;;;;;;4.80;1.37;;;;;;;;;;5112237;28;20287;-82
2022/02/02 07:53:39;;;;;;;3.63;1.23;;;;;;;;;;5103820;28;20274;-81
2022/02/02 07:56:11;;;;;;;5.13;1.57;;;;;;;;;;5130576;27;20734;-81
2022/02/02 07:58:43;;;;;;;5.57;1.20;;;;;;;;;;5124810;27;20212;-82
2022/02/02 08:01:13;;;;;;;5.67;1.30;;;;;;;;;;5118856;27;20199;-82
2022/02/02 08:03:43;;;;;;;3.53;1.00;;;;;;;;;;5126322;28;20208;-82
2022/02/02 08:06:11;;;;;;;6.83;1.23;;;;;;;;;;5122256;27;20583;-83
2022/02/02 08:08:41;;;;;;;2.70;1.00;;;;;;;;;;5111973;28;20201;-83
2022/02/02 08:11:10;;;;;;;3.77;1.10;;;;;;;;;;5121441;28;20298;-83
2022/02/02 08:13:42;;;;;;;4.47;1.20;;;;;;;;;;5115811;28;20204;-83
2022/02/02 08:16:12;;;;;;;6.27;1.03;;;;;;;;;;5123347;28;20659;-83
2022/02/02 08:18:41;;;;;;;4.70;1.20;;;;;;;;;;5129013;28;20213;-83
2022/02/02 08:21:10;;;;;;;5.80;1.30;;;;;;;;;;5125587;28;20242;-83
2022/02/02 08:23:38;;;;;;;5.17;1.40;;;;;;;;;;5119180;28;20252;-85
2022/02/02 08:26:12;;;;;;;6.50;1.00;;;;;;;;;;5117909;28;20225;-82
2022/02/02 08:28:41;;;;;;;2.97;0.87;;;;;;;;;;5108002;28;20206;-82
2022/02/02 08:31:09;;;;;;;5.63;0.90;;;;;;;;;;5122796;28;20224;-83
2022/02/02 08:33:38;;;;;;;5.30;1.40;;;;;;;;;;5114694;28;20718;-82
2022/02/02 08:36:09;;;;;;;5.77;1.00;;;;;;;;;;5116048;28;20203;-82
2022/02/02 08:41:24;;;;;;;3.80;0.90;;;;;;;;;;5116326;28;20195;-82
2022/02/02 08:43:57;;;;;;;4.43;1.00;;;;;;;;;;5121498;28;20221;-82
2022/02/02 08:46:28;;;;;;;2.83;0.80;;;;;;;;;;5117007;28;20222;-82
2022/02/02 08:48:57;;;;;;;3.63;1.17;;;;;;;;;;5123861;28;20223;-82
2022/02/02 08:51:29;;;;;;;3.00;0.90;;;;;;;;;;5128066;28;20215;-82
2022/02/02 08:54:07;;;;;;;4.57;1.00;;;;;;;;;;5110056;28;20204;-82
2022/02/02 08:57:06;;;;;;;3.33;0.90;;;;;;;;;;5101281;28;20220;-82
2022/02/02 08:59:41;;;;;;;1.50;0.73;;;;;;;;;;5083533;28;20677;-82
2022/02/02 09:02:12;;;;;;;2.60;0.97;;;;;;;;;;5104609;28;20219;-83
2022/02/02 09:07:25;;;;;;;5.70;1.17;;;;;;;;;;5098522;28;20225;-83
2022/02/02 09:09:59;;;;;;;6.53;1.10;;;;;;;;;;5095151;28;20295;-83
2022/02/02 09:23:46;;;;;;;8.40;1.60;;;;;;;;;;5090242;28;20193;-83
2022/02/02 09:31:26;;;;;;;8.03;1.60;;;;;;;;;;5096238;28;20327;-83
2022/02/02 09:34:47;;;;;;;9.67;1.90;;;;;;;;;;5043493;28;20615;-83
2022/02/02 09:37:16;;;;;;;9.80;2.13;;;;;;;;;;5030126;28;20197;-82
2022/02/02 09:39:50;;;;;;;8.10;1.80;;;;;;;;;;5027750;28;20198;-83
2022/02/02 09:42:19;;;;;;;7.87;1.93;;;;;;;;;;5027146;28;20274;-83
2022/02/02 09:44:53;;;;;;;13.73;1.97;;;;;;;;;;5030721;28;20209;-83
2022/02/02 09:47:26;;;;;;;8.67;2.07;;;;;;;;;;5030959;28;20223;-83
2022/02/02 09:49:59;;;;;;;11.77;2.10;;;;;;;;;;5029238;28;20203;-83
2022/02/02 09:52:34;;;;;;;8.47;2.00;;;;;;;;;;5030788;28;20281;-83
2022/02/02 09:55:07;;;;;;;9.10;2.37;;;;;;;;;;5030415;28;20644;-82
2022/02/02 10:03:34;;;;;;;9.23;2.03;;;;;;;;;;5038210;28;20617;-84
2022/02/02 10:06:06;;;;;;;14.20;2.20;;;;;;;;;;5033507;28;20780;-84
2022/02/02 10:14:31;;;;;;;12.37;2.10;;;;;;;;;;5091716;28;20204;-84
2022/02/02 10:16:59;;;;;;;12.43;2.80;;;;;;;;;;5101235;28;20197;-83
2022/02/02 10:19:32;;;;;;;12.13;2.10;;;;;;;;;;5113731;28;20217;-84
2022/02/02 10:22:00;;;;;;;10.13;2.20;;;;;;;;;;5109406;28;20225;-83
2022/02/02 10:24:42;;;;;;;11.67;2.10;;;;;;;;;;5104466;28;20754;-84
2022/02/02 10:27:22;;;;;;;9.87;2.10;;;;;;;;;;5111915;28;20256;-84
2022/02/02 10:29:49;;;;;;;10.77;2.70;;;;;;;;;;5113660;28;20236;-83
2022/02/02 10:32:36;;;;;;;13.77;2.47;;;;;;;;;;5113305;28;20284;-84
2022/02/02 10:35:05;;;;;;;14.07;2.43;;;;;;;;;;5114447;28;20263;-83
2022/02/02 10:37:33;;;;;;;11.67;2.20;;;;;;;;;;5101562;28;20252;-82
2022/02/02 10:40:03;;;;;;;10.57;2.30;;;;;;;;;;5104445;28;20229;-84
2022/02/02 10:42:39;;;;;;;10.37;2.70;;;;;;;;;;5099198;28;20230;-84
2022/02/02 10:45:23;;;;;;;12.50;2.67;;;;;;;;;;5096023;28;20913;-84
2022/02/02 10:47:59;;;;;;;10.90;2.07;;;;;;;;;;5104596;28;20218;-84
2022/02/02 10:50:35;;;;;;;12.17;2.23;;;;;;;;;;5112715;28;20204;-84
2022/02/02 10:53:31;;;;;;;17.03;2.97;;;;;;;;;;5110846;28;20221;-84
2022/02/02 10:56:18;;;;;;;11.53;2.40;;;;;;;;;;5103924;27;20225;-84
2022/02/02 11:01:49;;;;;;;10.53;2.10;;;;;;;;;;5071958;28;20293;-83
2022/02/02 11:07:03;;;;;;;12.27;2.97;;;;;;;;;;5077507;28;20316;-84
2022/02/02 11:09:31;;;;;;;10.13;2.80;;;;;;;;;;5075130;28;20643;-85
2022/02/02 11:11:58;;;;;;;9.80;2.40;;;;;;;;;;5082719;28;20245;-84
2022/02/02 11:14:36;;;;;;;13.93;2.70;;;;;;;;;;5076971;28;20611;-83
2022/02/02 11:17:08;;;;;;;11.13;2.57;;;;;;;;;;5063939;28;20279;-82
2022/02/02 11:19:38;;;;;;;13.40;3.07;;;;;;;;;;5079328;28;20936;-84
2022/02/02 11:22:30;;;;;;;11.50;2.93;;;;;;;;;;5075532;28;20241;-85
2022/02/02 11:24:57;;;;;;;12.97;2.20;;;;;;;;;;5069891;28;20302;-83
2022/02/02 11:27:34;;;;;;;11.73;2.43;;;;;;;;;;5080445;28;20259;-83
2022/02/02 11:30:02;;;;;;;11.57;2.67;;;;;;;;;;5074406;28;20196;-82
2022/02/02 11:32:40;;;;;;;12.27;2.60;;;;;;;;;;5096460;27;20657;-82
2022/02/02 11:35:22;;;;;;;12.97;2.57;;;;;;;;;;5112771;27;20292;-82
2022/02/02 11:37:58;;;;;;;13.33;2.17;;;;;;;;;;5114145;27;20243;-82
2022/02/02 11:43:11;;;;;;;7.27;2.13;;;;;;;;;;5120695;27;20221;-85
2022/02/02 11:45:53;;;;;;;12.30;1.70;;;;;;;;;;5122751;27;20689;-86
2022/02/02 11:48:39;;;;;;;11.27;2.20;;;;;;;;;;5111877;27;20225;-86
2022/02/02 11:51:08;;;;;;;11.87;2.03;;;;;;;;;;5122406;27;20229;-86
2022/02/02 11:53:55;;;;;;;12.40;1.93;;;;;;;;;;5122615;27;20281;-88
2022/02/02 11:56:28;;;;;;;12.30;2.33;;;;;;;;;;5120473;27;20189;-87
2022/02/02 11:58:56;;;;;;;8.57;2.37;;;;;;;;;;5123329;27;20198;-86
2022/02/02 12:01:38;;;;;;;8.33;1.97;;;;;;;;;;5116543;27;20295;-85
2022/02/02 12:07:03;;;;;;;12.37;2.13;;;;;;;;;;5124267;27;20225;-87
2022/02/02 12:09:42;;;;;;;9.60;1.77;;;;;;;;;;5111276;28;20255;-86
2022/02/02 12:49:04;;;;;;;9.00;1.90;;;;;;;;;;5123640;27;20295;-87
2022/02/02 12:55:27;;;;;;;9.73;2.47;;;;;;;;;;5118430;27;20232;-84
2022/02/02 12:57:39;;;;;;;8.87;2.40;;;;;;;;;;5087532;28;20194;-85
2022/02/02 13:00:09;;;;;;;9.00;2.53;;;;;;;;;;5095343;28;20208;-85
2022/02/02 13:02:39;;;;;;;12.10;2.83;;;;;;;;;;5094160;28;20582;-85
2022/02/02 13:05:07;;;;;;;14.80;2.80;;;;;;;;;;5096340;28;20202;-84
2022/02/02 13:07:35;;;;;;;7.53;2.60;;;;;;;;;;5094778;28;20249;-85
2022/02/02 13:10:04;;;;;;;13.13;2.60;;;;;;;;;;5095470;28;20316;-84
2022/02/02 13:12:39;;;;;;;8.10;2.57;;;;;;;;;;5093586;28;20228;-85
2022/02/02 13:15:15;;;;;;;7.83;2.07;;;;;;;;;;5094192;28;20196;-84
2022/02/02 13:17:51;;;;;;;11.00;4.23;;;;;;;;;;5082648;28;20201;-84
2022/02/02 13:20:29;;;;;;;8.27;2.50;;;;;;;;;;5093511;28;20251;-85
2022/02/02 13:23:03;;;;;;;12.23;2.40;;;;;;;;;;5089338;28;20954;-84
2022/02/02 13:25:32;;;;;;;8.63;2.47;;;;;;;;;;5101292;28;20201;-84
2022/02/02 13:28:01;;;;;;;9.50;2.20;;;;;;;;;;5096949;28;20309;-85
2022/02/02 13:30:35;;;;;;;10.30;2.00;;;;;;;;;;5102085;28;20286;-84
2022/02/02 13:33:13;;;;;;;9.43;2.27;;;;;;;;;;5089716;28;20194;-85
2022/02/02 13:35:52;;;;;;;11.57;3.13;;;;;;;;;;5103681;28;20642;-86
2022/02/02 13:38:38;;;;;;;10.90;2.10;;;;;;;;;;5088055;28;20204;-85
2022/02/02 13:44:06;;;;;;;9.83;2.63;;;;;;;;;;5093164;28;20229;-87
2022/02/02 13:46:57;;;;;;;7.30;2.80;;;;;;;;;;5095658;28;20745;-86
2022/02/02 13:49:52;;;;;;;6.73;2.50;;;;;;;;;;5094083;28;20228;-87
2022/02/02 13:52:36;;;;;;;9.97;2.53;;;;;;;;;;5097551;28;20201;-86
2022/02/02 13:55:27;;;;;;;13.40;2.93;;;;;;;;;;5090724;28;20249;-87
2022/02/02 13:58:27;;;;;;;10.33;2.50;;;;;;;;;;5105196;28;20229;-87
2022/02/02 14:01:01;;;;;;;10.00;3.40;;;;;;;;;;5111640;28;20254;-86
2022/02/02 14:06:33;;;;;;;12.27;3.00;;;;;;;;;;5107144;28;20196;-87
2022/02/02 14:09:08;;;;;;;9.50;2.47;;;;;;;;;;5109455;28;20709;-86
2022/02/02 14:25:38;;;;;;;11.93;2.53;;;;;;;;;;5103317;28;20193;-86
2022/02/02 14:26:06;;;;;;;8.53;2.90;;;;;;;;;;5107265;28;20338;-85
2022/02/02 14:31:23;;;;;;;11.50;3.67;;;;;;;;;;5113418;28;20205;-87
2022/02/02 14:33:51;;;;;;;10.93;3.23;;;;;;;;;;5105476;28;20217;-86
2022/02/02 14:36:21;;;;;;;11.97;3.93;;;;;;;;;;5114524;28;20201;-86
2022/02/02 14:38:55;;;;;;;15.37;4.03;;;;;;;;;;5112451;28;20197;-89
2022/02/02 14:41:31;;;;;;;12.50;4.50;;;;;;;;;;5106496;28;20360;-90
2022/02/02 14:44:02;;;;;;;9.17;3.43;;;;;;;;;;5104141;28;20722;-90
2022/02/02 14:46:35;;;;;;;12.80;2.93;;;;;;;;;;5093301;28;20670;-91
2022/02/02 14:49:07;;;;;;;12.73;2.70;;;;;;;;;;5113469;28;20214;-92
2022/02/02 14:54:37;;;;;;;9.27;3.13;;;;;;;;;;5114989;27;20232;-92
2022/02/02 15:06:24;;;;;;;10.20;4.20;;;;;;;;;;5120611;27;20193;-90
2022/02/02 15:28:15;;;;;;;13.77;5.87;;;;;;;;;;5073742;28;20731;-90
2022/02/02 15:30:52;;;;;;;10.40;3.10;;;;;;;;;;5126029;27;20197;-91
2022/02/02 15:33:23;;;;;;;11.87;3.80;;;;;;;;;;5117926;27;20240;-91
2022/02/02 15:36:02;;;;;;;13.27;4.10;;;;;;;;;;5120705;27;20231;-88
2022/02/02 15:38:30;;;;;;;14.47;5.20;;;;;;;;;;5125029;27;20201;-88
2022/02/02 15:41:02;;;;;;;11.87;3.83;;;;;;;;;;5124030;27;20197;-89
2022/02/02 15:43:38;;;;;;;11.00;3.50;;;;;;;;;;5112496;27;20220;-88
2022/02/02 16:03:02;;;;;;;12.90;5.70;;;;;;;;;;5092921;28;20209;-87
2022/02/02 16:05:34;;;;;;;14.13;4.73;;;;;;;;;;5093853;28;20209;-88
2022/02/02 16:08:05;;;;;;;15.50;4.80;;;;;;;;;;5100719;28;20214;-86
2022/02/02 16:10:44;;;;;;;17.10;4.53;;;;;;;;;;5098011;28;20217;-87
2022/02/02 16:13:26;;;;;;;10.73;4.20;;;;;;;;;;5093371;28;20201;-86
2022/02/02 16:15:58;;;;;;;11.23;4.53;;;;;;;;;;5088221;28;20711;-91
2022/02/02 16:35:25;;;;;;;14.10;4.87;;;;;;;;;;5093873;28;20682;-89
2022/02/02 16:37:56;;;;;;;14.80;5.23;;;;;;;;;;5099345;28;20194;-89
2022/02/02 16:40:31;;;;;;;15.83;5.70;;;;;;;;;;5096644;28;20205;-88
2022/02/02 16:43:13;;;;;;;14.60;4.80;;;;;;;;;;5100776;28;20308;-88
2022/02/02 16:45:41;;;;;;;12.03;5.27;;;;;;;;;;5092784;28;20210;-89
2022/02/02 16:48:10;;;;;;;12.00;4.93;;;;;;;;;;5101038;28;20225;-90
2022/02/02 16:50:39;;;;;;;9.30;5.13;;;;;;;;;;5097235;28;20661;-89
2022/02/02 16:53:11;;;;;;;13.67;5.83;;;;;;;;;;5093276;28;20646;-90
2022/02/02 16:55:46;;;;;;;18.17;6.40;;;;;;;;;;5111770;28;20238;-89
2022/02/02 17:24:15;;;;;;;13.93;6.47;;;;;;;;;;5113328;28;20227;-90
2022/02/02 17:31:28;;;;;;;11.57;5.77;;;;;;;;;;5122554;27;20722;-91
2022/02/02 17:33:59;;;;;;;14.00;7.13;;;;;;;;;;5127839;27;20208;-91
2022/02/02 17:36:33;;;;;;;12.90;6.63;;;;;;;;;;5128495;27;20567;-91
2022/02/02 17:39:06;;;;;;;12.60;6.80;;;;;;;;;;5115531;27;20209;-88
2022/02/02 17:42:03;;;;;;;13.57;7.10;;;;;;;;;;5122767;27;20213;-91
2022/02/02 17:56:26;;;;;;;14.90;6.67;;;;;;;;;;5092253;28;20778;-90
2022/02/02 18:12:59;;;;;;;14.07;7.17;;;;;;;;;;4974759;28;20205;-89
2022/02/02 18:18:50;;;;;;;15.03;6.70;;;;;;;;;;4938452;29;20714;-88
2022/02/02 18:21:19;;;;;;;12.53;6.40;;;;;;;;;;4932980;29;20212;-90
2022/02/02 18:23:52;;;;;;;17.03;7.00;;;;;;;;;;4933800;29;20297;-89
2022/02/02 18:26:26;;;;;;;17.07;7.97;;;;;;;;;;4934402;28;20291;-88
2022/02/02 18:28:59;;;;;;;13.60;6.87;;;;;;;;;;4955765;28;20234;-89
2022/02/02 18:34:21;;;;;;;15.37;8.30;;;;;;;;;;4898898;29;20201;-89
2022/02/02 18:36:57;;;;;;;13.43;6.67;;;;;;;;;;4899859;29;20267;-89
2022/02/02 18:47:58;;;;;;;12.13;7.03;;;;;;;;;;4962814;28;20198;-90
2022/02/02 18:50:45;;;;;;;13.73;8.67;;;;;;;;;;4972719;28;20574;-89
2022/02/02 18:56:05;;;;;;;10.33;6.83;;;;;;;;;;5048083;28;20235;-87
2022/02/02 18:58:42;;;;;;;9.23;6.50;;;;;;;;;;5056065;28;20227;-89
2022/02/02 19:01:20;;;;;;;8.83;5.60;;;;;;;;;;5061003;28;20203;-90
2022/02/02 19:04:11;;;;;;;11.10;6.67;;;;;;;;;;5060809;28;20263;-88
2022/02/02 19:37:18;;;;;;;9.27;5.97;;;;;;;;;;5015915;28;20208;-90
2022/02/02 19:37:57;;;;;;;7.83;6.40;;;;;;;;;;5011930;28;20246;-83
2022/02/02 19:40:31;;;;;;;9.50;6.23;;;;;;;;;;5029226;28;20205;-82
2022/02/02 19:57:20;;;;;;;8.53;5.50;;;;;;;;;;5018228;28;20213;-86
2022/02/02 20:03:08;;;;;;;6.70;5.50;;;;;;;;;;5069445;28;20425;-86
2022/02/02 20:05:43;;;;;;;9.90;5.37;;;;;;;;;;5073370;28;20201;-85
2022/02/02 20:11:03;;;;;;;7.60;5.27;;;;;;;;;;5073546;28;20210;-85
2022/02/02 20:13:30;;;;;;;8.70;5.00;;;;;;;;;;5075024;28;20263;-85
2022/02/02 20:15:58;;;;;;;7.30;5.07;;;;;;;;;;5069126;28;20933;-85
2022/02/02 20:18:26;;;;;;;7.17;4.57;;;;;;;;;;5071947;28;20359;-86
2022/02/02 20:20:56;;;;;;;8.73;5.20;;;;;;;;;;5071362;28;20702;-88
2022/02/02 20:23:23;;;;;;;9.13;6.50;;;;;;;;;;5082450;28;20242;-88
2022/02/02 20:25:54;;;;;;;8.57;5.93;;;;;;;;;;5074464;28;20217;-88
2022/02/02 20:28:21;;;;;;;10.57;7.27;;;;;;;;;;5069856;28;20253;-88
2022/02/02 20:30:48;;;;;;;12.47;6.90;;;;;;;;;;5088468;28;20268;-88
2022/02/02 20:33:16;;;;;;;9.00;6.73;;;;;;;;;;5096677;28;20614;-88
2022/02/02 20:35:43;;;;;;;11.27;7.37;;;;;;;;;;5092113;28;20205;-88
2022/02/02 20:38:13;;;;;;;12.27;6.63;;;;;;;;;;5097180;28;20271;-87
2022/02/02 20:40:40;;;;;;;11.20;6.73;;;;;;;;;;5103824;28;20232;-88
2022/02/02 20:43:08;;;;;;;10.97;7.00;;;;;;;;;;5096498;28;20218;-88
2022/02/02 20:46:07;;;;;;;11.20;7.33;;;;;;;;;;5111194;28;20247;-88
2022/02/02 21:05:30;;;;;;;14.27;8.37;;;;;;;;;;5097231;28;20198;-88
2022/02/02 21:10:52;;;;;;;8.57;7.33;;;;;;;;;;5105379;28;20686;-88
2022/02/02 21:16:05;;;;;;;8.73;7.10;;;;;;;;;;5104283;28;20203;-88
2022/02/02 21:18:36;;;;;;;10.53;7.23;;;;;;;;;;5100333;28;20212;-89
2022/02/02 21:21:06;;;;;;;13.37;8.03;;;;;;;;;;5099513;28;20226;-89
2022/02/02 21:23:42;;;;;;;12.33;8.93;;;;;;;;;;5103273;28;20213;-82
2022/02/02 21:26:35;;;;;;;11.43;8.67;;;;;;;;;;5111892;28;20669;-82
2022/02/02 21:29:02;;;;;;;12.07;8.23;;;;;;;;;;5080387;28;20219;-82
2022/02/02 21:31:29;;;;;;;11.33;7.33;;;;;;;;;;5095473;28;20293;-82
2022/02/02 21:33:56;;;;;;;10.40;6.10;;;;;;;;;;5095866;28;20213;-81
2022/02/02 21:36:23;;;;;;;8.33;5.97;;;;;;;;;;5092729;28;20253;-82
2022/02/02 21:38:58;;;;;;;7.90;6.03;;;;;;;;;;5106504;28;20921;-82
2022/02/02 21:41:33;;;;;;;9.47;6.17;;;;;;;;;;5092215;28;20579;-82
2022/02/02 21:44:00;;;;;;;9.70;6.13;;;;;;;;;;5109224;28;20248;-81
2022/02/02 21:46:27;;;;;;;7.33;6.07;;;;;;;;;;5106143;28;20223;-82
2022/02/02 21:48:55;;;;;;;8.10;5.90;;;;;;;;;;5108954;28;20218;-82
2022/02/02 21:51:27;;;;;;;8.87;5.60;;;;;;;;;;5104233;28;20191;-82
2022/02/02 21:53:55;;;;;;;8.03;6.03;;;;;;;;;;5104870;27;20198;-82
2022/02/02 21:56:22;;;;;;;10.53;6.03;;;;;;;;;;5102494;28;20280;-82
2022/02/02 21:58:51;;;;;;;8.83;5.87;;;;;;;;;;5108172;28;20637;-82
2022/02/02 22:01:18;;;;;;;10.40;5.93;;;;;;;;;;5113296;28;20728;-80
2022/02/02 22:03:46;;;;;;;7.87;5.90;;;;;;;;;;5113761;28;20205;-82
2022/02/02 22:06:13;;;;;;;8.83;6.20;;;;;;;;;;5102620;28;20191;-82
2022/02/02 22:08:41;;;;;;;8.87;6.27;;;;;;;;;;5113486;28;20351;-82
2022/02/02 22:11:08;;;;;;;10.50;6.97;;;;;;;;;;5111052;28;20267;-82
2022/02/02 22:13:39;;;;;;;10.43;6.97;;;;;;;;;;5110266;28;20225;-82
2022/02/02 22:16:11;;;;;;;12.10;7.50;;;;;;;;;;5108009;28;20208;-82
2022/02/02 22:18:40;;;;;;;8.63;7.40;;;;;;;;;;5104899;28;20225;-82
2022/02/02 22:21:07;;;;;;;11.03;8.30;;;;;;;;;;5095847;28;20663;-82
2022/02/02 22:23:36;;;;;;;9.70;7.90;;;;;;;;;;5093574;28;20202;-82
2022/02/02 22:26:04;;;;;;;11.97;8.97;;;;;;;;;;5093872;28;20273;-82
2022/02/02 22:28:31;;;;;;;12.50;8.70;;;;;;;;;;5094798;28;20239;-82
2022/02/02 22:30:58;;;;;;;11.33;8.73;;;;;;;;;;5110241;28;20218;-80
2022/02/02 22:33:27;;;;;;;13.70;9.37;;;;;;;;;;5110352;28;20730;-82
2022/02/02 22:35:54;;;;;;;12.90;10.83;;;;;;;;;;5109939;28;20284;-82
2022/02/02 22:38:23;;;;;;;15.00;11.30;;;;;;;;;;5104364;28;20290;-82
2022/02/02 22:40:50;;;;;;;14.17;11.13;;;;;;;;;;5102785;28;20286;-82
2022/02/02 22:43:17;;;;;;;17.83;12.10;;;;;;;;;;5093457;28;20915;-82
2022/02/02 22:45:47;;;;;;;15.83;12.40;;;;;;;;;;5102620;28;20262;-82
2022/02/02 22:48:17;;;;;;;17.17;12.53;;;;;;;;;;5111569;28;20202;-82
2022/02/02 22:50:45;;;;;;;18.53;13.07;;;;;;;;;;5094364;28;20220;-82
2022/02/02 22:53:12;;;;;;;16.90;12.83;;;;;;;;;;5093052;28;20200;-82
2022/02/02 22:55:40;;;;;;;19.57;14.47;;;;;;;;;;5127418;27;20309;-83
2022/02/02 22:58:07;;;;;;;20.67;15.17;;;;;;;;;;5123328;27;20642;-82
2022/02/02 23:00:37;;;;;;;23.80;16.07;;;;;;;;;;5122912;27;20279;-82
2022/02/02 23:03:06;;;;;;;22.37;16.80;;;;;;;;;;5127913;27;20616;-82
2022/02/02 23:05:36;;;;;;;23.73;18.00;;;;;;;;;;5118835;27;20221;-82
2022/02/02 23:08:06;;;;;;;22.50;17.80;;;;;;;;;;5114855;27;20227;-82
2022/02/02 23:10:35;;;;;;;24.57;18.97;;;;;;;;;;5114058;27;20222;-82
2022/02/02 23:13:02;;;;;;;27.53;19.83;;;;;;;;;;5133278;27;20207;-82
2022/02/02 23:15:36;;;;;;;25.27;19.50;;;;;;;;;;5133309;27;20202;-83